Time;durP1;ratioP1;P1;durP2;ratioP2;P2;SDS_P1;SDS_P2;PMS_P1;PMS_P2;Temp;Humidity;BMP_temperature;BMP_pressure;BME280_temperature;BME280_humidity;BME280_pressure;Samples;Min_cycle;Max_cycle;Signal;HPM_P1;HPM_P2
2024/01/12 16:23:52;;;;;;;31.60;11.00;;;;;;;-0.80;93.72;101168.90;104312;1303;543272;-75
2024/01/12 16:26:43;;;;;;;27.40;9.40;;;;;;;-0.82;93.73;101168.11;107508;1271;25323;-74
2024/01/12 16:29:37;;;;;;;22.60;7.30;;;;;;;-0.82;93.54;101164.66;107558;1275;26661;-75
2024/01/12 16:32:28;;;;;;;19.50;5.80;;;;;;;-0.84;92.99;101161.83;107479;1269;22711;-75
2024/01/12 16:35:19;;;;;;;29.30;9.10;;;;;;;-0.87;92.70;101156.40;107357;1271;22639;-79
2024/01/12 16:38:10;;;;;;;20.50;6.10;;;;;;;-0.89;92.80;101152.48;107404;1272;150998;-74
2024/01/12 16:41:02;;;;;;;18.90;4.80;;;;;;;-0.92;92.49;101146.65;107661;1268;22715;-76
2024/01/12 16:43:53;;;;;;;18.70;7.70;;;;;;;-0.95;92.39;101137.61;107652;1266;25552;-76
2024/01/12 16:46:44;;;;;;;21.60;7.10;;;;;;;-0.96;92.80;101135.48;107660;1271;24321;-74
2024/01/12 16:49:37;;;;;;;23.60;8.70;;;;;;;-0.97;92.94;101133.37;107518;1272;24369;-74
2024/01/12 16:52:30;;;;;;;18.10;5.70;;;;;;;-0.97;92.92;101133.92;107624;1266;22606;-78
2024/01/12 16:55:21;;;;;;;18.20;5.40;;;;;;;-0.99;92.60;101131.64;107214;1268;26605;-74
2024/01/12 16:58:11;;;;;;;16.00;5.40;;;;;;;-1.00;92.22;101137.96;107322;1268;24246;-78
2024/01/12 17:01:03;;;;;;;18.80;6.80;;;;;;;-1.03;92.10;101144.36;107580;1269;24237;-75
2024/01/12 17:03:54;;;;;;;19.10;5.40;;;;;;;-1.05;92.16;101146.08;107405;1269;22534;-81
2024/01/12 17:06:59;;;;;;;25.70;7.00;;;;;;;-1.07;91.99;101145.97;107641;1276;22532;-75
2024/01/12 17:09:52;;;;;;;18.40;6.10;;;;;;;-1.07;92.18;101145.58;107309;1269;23336;-76
2024/01/12 17:12:42;;;;;;;22.80;6.80;;;;;;;-1.09;92.27;101142.98;107312;1276;24055;-74
2024/01/12 17:15:34;;;;;;;30.00;9.10;;;;;;;-1.09;92.36;101132.73;107296;1276;24943;-74
2024/01/12 17:18:25;;;;;;;25.40;7.10;;;;;;;-1.10;92.37;101136.48;107263;1272;22575;-73
2024/01/12 17:21:26;;;;;;;27.20;8.90;;;;;;;-1.10;92.39;101140.02;107388;1270;23342;-74
2024/01/12 17:24:17;;;;;;;28.20;9.40;;;;;;;-1.10;92.31;101136.40;109424;1269;25424;-76
2024/01/12 17:27:08;;;;;;;15.00;4.50;;;;;;;-1.11;92.26;101128.40;107302;1272;24383;-73
2024/01/12 17:30:00;;;;;;;17.10;5.10;;;;;;;-1.11;92.21;101116.82;107284;1270;25663;-73
2024/01/12 17:32:50;;;;;;;20.00;6.40;;;;;;;-1.12;92.11;101109.36;107360;1269;22758;-75
2024/01/12 17:35:41;;;;;;;16.90;4.90;;;;;;;-1.12;92.35;101098.96;107418;1270;22648;-74
2024/01/12 17:38:33;;;;;;;16.90;4.80;;;;;;;-1.13;92.24;101095.90;107189;1271;25364;-73
2024/01/12 17:41:23;;;;;;;17.50;5.10;;;;;;;-1.13;92.18;101100.98;107333;1273;23342;-76
2024/01/12 17:44:14;;;;;;;21.10;6.30;;;;;;;-1.13;92.42;101103.88;107402;1255;22552;-77
2024/01/12 17:47:06;;;;;;;15.60;4.70;;;;;;;-1.12;92.50;101095.04;107357;1273;25504;-75
2024/01/12 17:49:59;;;;;;;18.80;7.30;;;;;;;-1.12;92.40;101091.59;107298;1268;24256;-75
2024/01/12 17:52:49;;;;;;;20.40;7.60;;;;;;;-1.11;92.55;101097.77;107496;1269;24244;-75
2024/01/12 17:55:40;;;;;;;20.60;7.60;;;;;;;-1.11;92.41;101102.64;108725;1271;23906;-74
2024/01/12 17:58:33;;;;;;;20.50;5.70;;;;;;;-1.11;92.51;101108.58;107180;1273;25344;-74
2024/01/12 18:01:27;;;;;;;20.40;7.10;;;;;;;-1.11;92.59;101106.09;110009;1269;25291;-77
2024/01/12 18:04:21;;;;;;;22.70;8.20;;;;;;;-1.10;92.61;101104.55;110309;1268;23220;-78
2024/01/12 18:07:12;;;;;;;24.90;8.10;;;;;;;-1.09;92.70;101107.92;110374;1269;22457;-77
2024/01/12 18:10:03;;;;;;;27.90;10.40;;;;;;;-1.08;92.71;101111.84;108206;1270;22565;-74
2024/01/12 18:12:56;;;;;;;25.10;7.40;;;;;;;-1.06;92.82;101112.95;107364;1274;22579;-75
2024/01/12 18:15:47;;;;;;;23.00;8.00;;;;;;;-1.05;92.74;101117.49;107733;1273;22657;-75
2024/01/12 18:18:39;;;;;;;22.10;7.50;;;;;;;-1.04;92.73;101109.84;107462;1264;25236;-76
2024/01/12 18:21:30;;;;;;;31.60;10.00;;;;;;;-1.03;92.89;101104.42;107575;1273;22634;-76
2024/01/12 18:24:22;;;;;;;27.90;10.90;;;;;;;-1.02;93.00;101102.17;107263;1274;22744;-80
2024/01/12 18:27:13;;;;;;;25.50;9.20;;;;;;;-1.01;92.95;101104.99;107453;1276;22645;-74
2024/01/12 18:30:05;;;;;;;19.80;8.00;;;;;;;-1.01;93.04;101089.42;107369;1264;22728;-78
2024/01/12 18:32:56;;;;;;;27.30;8.70;;;;;;;-1.01;92.97;101081.51;107496;1272;25279;-75
2024/01/12 18:35:48;;;;;;;25.90;8.50;;;;;;;-1.01;93.08;101071.16;107942;1269;22560;-75
2024/01/12 18:38:40;;;;;;;33.10;13.40;;;;;;;-1.00;93.25;101064.29;107463;1271;22734;-74
2024/01/12 18:41:31;;;;;;;21.60;7.50;;;;;;;-1.00;93.53;101058.73;107503;1273;24230;-74
2024/01/12 18:44:22;;;;;;;24.60;8.90;;;;;;;-1.00;93.51;101059.75;107356;1275;25512;-74
2024/01/12 18:47:13;;;;;;;27.00;9.60;;;;;;;-0.99;93.52;101051.70;107394;1267;24132;-74
2024/01/12 18:50:07;;;;;;;24.20;10.50;;;;;;;-0.98;93.75;101051.38;107766;1274;24054;-74
2024/01/12 18:52:58;;;;;;;24.80;8.80;;;;;;;-0.98;93.72;101054.91;107403;1273;22550;-74
2024/01/12 18:55:49;;;;;;;28.20;10.20;;;;;;;-0.98;93.91;101064.93;107330;1273;22571;-77
2024/01/12 18:58:40;;;;;;;22.60;7.30;;;;;;;-0.97;93.91;101066.27;107430;1275;22652;-74
2024/01/12 19:01:32;;;;;;;20.30;7.20;;;;;;;-0.98;94.04;101062.51;107389;1276;24305;-75
2024/01/12 19:04:23;;;;;;;21.30;8.00;;;;;;;-0.98;94.15;101058.36;107472;1274;22597;-74
2024/01/12 19:07:15;;;;;;;25.30;8.30;;;;;;;-0.98;94.26;101052.72;107483;1267;24224;-74
2024/01/12 19:10:08;;;;;;;25.40;8.30;;;;;;;-0.98;94.40;101051.77;107422;1273;24219;-75
2024/01/12 19:12:59;;;;;;;23.90;8.70;;;;;;;-0.98;94.41;101050.06;107461;1269;22553;-74
2024/01/12 19:15:50;;;;;;;20.80;7.20;;;;;;;-0.97;94.55;101053.73;107454;1271;22643;-75
2024/01/12 19:18:41;;;;;;;22.00;6.90;;;;;;;-0.97;94.64;101051.63;107388;1269;24319;-75
2024/01/12 19:21:33;;;;;;;23.50;7.90;;;;;;;-0.98;94.64;101043.88;107612;1274;22554;-78
2024/01/12 19:24:24;;;;;;;19.10;5.50;;;;;;;-0.97;94.79;101042.53;107699;1273;23378;-74
2024/01/12 19:27:15;;;;;;;19.30;5.60;;;;;;;-0.98;94.89;101041.44;107530;1268;24337;-74
2024/01/12 19:30:09;;;;;;;23.60;6.70;;;;;;;-0.98;95.06;101035.80;107631;1274;22594;-74
2024/01/12 19:33:01;;;;;;;22.20;7.30;;;;;;;-0.98;95.14;101035.80;107969;1267;24198;-74
2024/01/12 19:35:51;;;;;;;25.20;7.50;;;;;;;-0.97;95.22;101037.91;107419;1271;22662;-77
2024/01/12 19:38:42;;;;;;;27.00;9.00;;;;;;;-0.97;95.49;101031.42;107420;1267;24365;-74
2024/01/12 19:41:33;;;;;;;28.70;8.40;;;;;;;-0.96;95.57;101029.15;107409;1273;22582;-76
2024/01/12 19:44:25;;;;;;;22.90;7.20;;;;;;;-0.95;95.81;101031.27;107723;1261;22592;-76
2024/01/12 19:47:16;;;;;;;25.00;7.20;;;;;;;-0.95;95.79;101027.75;107628;1274;23400;-77
2024/01/12 19:50:09;;;;;;;24.40;7.20;;;;;;;-0.94;95.82;101020.31;108356;1274;22579;-77
2024/01/12 19:53:00;;;;;;;23.40;7.20;;;;;;;-0.93;95.99;101016.64;108484;1271;22705;-78
2024/01/12 19:55:51;;;;;;;22.20;6.60;;;;;;;-0.92;96.04;101011.89;107730;1273;24102;-76
2024/01/12 19:58:43;;;;;;;23.70;7.50;;;;;;;-0.90;96.19;101015.65;108013;1274;22564;-76
2024/01/12 20:01:35;;;;;;;25.90;8.30;;;;;;;-0.88;96.18;101010.10;108916;1267;22671;-77
2024/01/12 20:04:26;;;;;;;23.30;7.50;;;;;;;-0.86;96.07;101016.14;108077;1273;22577;-75
2024/01/12 20:07:17;;;;;;;22.60;7.20;;;;;;;-0.84;96.29;101021.46;108012;1261;22567;-77
2024/01/12 20:10:09;;;;;;;24.60;7.50;;;;;;;-0.83;96.32;101015.21;108323;1270;22577;-83
2024/01/12 20:13:00;;;;;;;24.80;8.60;;;;;;;-0.82;96.51;101011.46;108154;1275;22624;-76
2024/01/12 20:15:51;;;;;;;24.30;7.90;;;;;;;-0.80;96.69;101012.33;108444;1275;22542;-76
2024/01/12 20:18:42;;;;;;;25.90;8.50;;;;;;;-0.78;96.97;101005.98;108389;1275;22583;-76
2024/01/12 20:21:34;;;;;;;23.10;7.50;;;;;;;-0.76;96.95;101008.74;108748;1275;22566;-75
2024/01/12 20:24:26;;;;;;;24.40;8.40;;;;;;;-0.75;97.13;101009.38;108732;1275;25646;-75
2024/01/12 20:27:17;;;;;;;26.70;8.30;;;;;;;-0.75;97.52;101010.64;108393;1275;22593;-73
2024/01/12 20:30:11;;;;;;;24.10;8.50;;;;;;;-0.75;97.62;101011.02;107644;1275;23898;-79
2024/01/12 20:33:02;;;;;;;28.60;10.70;;;;;;;-0.76;97.97;101015.02;110576;1269;23054;-82
2024/01/12 20:35:53;;;;;;;31.40;10.90;;;;;;;-0.76;98.16;101009.52;107911;1267;25340;-77
2024/01/12 20:38:44;;;;;;;27.50;8.80;;;;;;;-0.77;98.21;101007.80;107541;1275;27075;-75
2024/01/12 20:41:41;;;;;;;31.30;10.70;;;;;;;-0.77;98.39;101007.73;107714;1267;22536;-79
2024/01/12 20:44:33;;;;;;;39.00;13.60;;;;;;;-0.77;98.57;101007.41;107517;1275;25511;-75
2024/01/12 20:47:26;;;;;;;40.50;15.10;;;;;;;-0.77;98.64;101006.48;107520;1270;22576;-75
2024/01/12 20:50:18;;;;;;;35.70;11.70;;;;;;;-0.77;98.84;101000.98;107554;1275;22881;-75
2024/01/12 20:53:10;;;;;;;39.40;12.70;;;;;;;-0.77;98.75;100997.77;107472;1275;22590;-76
2024/01/12 20:56:01;;;;;;;33.60;11.80;;;;;;;-0.77;98.81;100999.51;107541;1274;22628;-75
2024/01/12 20:58:53;;;;;;;29.90;11.00;;;;;;;-0.76;98.87;101002.70;107462;1264;25439;-74
2024/01/12 21:01:44;;;;;;;31.80;10.50;;;;;;;-0.76;98.98;100996.52;107419;1267;25334;-76
2024/01/12 21:04:35;;;;;;;31.70;11.30;;;;;;;-0.76;99.14;100984.15;107853;1273;22685;-76
2024/01/12 21:07:27;;;;;;;24.90;10.00;;;;;;;-0.75;98.95;100977.52;107498;1270;23771;-78
2024/01/12 21:10:18;;;;;;;27.70;9.90;;;;;;;-0.74;98.92;100970.45;107600;1271;26163;-78
2024/01/12 21:13:09;;;;;;;30.40;9.10;;;;;;;-0.74;99.11;100965.84;107517;1274;25315;-76
2024/01/12 21:16:04;;;;;;;26.00;8.80;;;;;;;-0.73;99.14;100963.73;107470;1275;25334;-75
2024/01/12 21:18:55;;;;;;;28.00;8.80;;;;;;;-0.73;98.97;100957.61;107468;1274;22552;-76
2024/01/12 21:21:47;;;;;;;23.50;7.60;;;;;;;-0.72;99.01;100962.32;107465;1273;22566;-75
2024/01/12 21:24:38;;;;;;;24.50;7.40;;;;;;;-0.71;98.92;100958.71;107682;1262;22722;-79
2024/01/12 21:27:31;;;;;;;19.30;5.70;;;;;;;-0.70;98.78;100956.85;107940;1269;24370;-77
2024/01/12 21:30:22;;;;;;;18.20;5.90;;;;;;;-0.68;98.63;100951.22;108352;1272;22754;-74
2024/01/12 21:33:13;;;;;;;23.80;7.40;;;;;;;-0.67;98.46;100954.04;108627;1270;22749;-77
2024/01/12 21:36:04;;;;;;;20.50;7.60;;;;;;;-0.66;98.52;100952.86;108456;1272;22630;-77
2024/01/12 21:38:56;;;;;;;22.10;6.20;;;;;;;-0.66;98.44;100949.50;108565;1272;24202;-76
2024/01/12 21:41:47;;;;;;;19.70;6.00;;;;;;;-0.64;98.34;100949.11;108819;1267;22568;-75
2024/01/12 21:44:39;;;;;;;26.70;7.40;;;;;;;-0.63;98.41;100946.77;108746;1267;22572;-75
2024/01/12 21:47:30;;;;;;;20.50;6.60;;;;;;;-0.61;98.43;100948.50;108817;1272;22937;-80
2024/01/12 21:50:21;;;;;;;19.90;6.20;;;;;;;-0.60;98.21;100942.01;108452;1265;22580;-75
2024/01/12 21:53:12;;;;;;;26.30;8.50;;;;;;;-0.60;98.29;100942.39;108480;1270;22694;-77
2024/01/12 21:56:05;;;;;;;20.80;6.50;;;;;;;-0.59;98.40;100945.67;109110;1267;23300;-76
2024/01/12 21:58:56;;;;;;;23.50;7.00;;;;;;;-0.58;98.29;100952.50;109096;1266;22782;-76
2024/01/12 22:01:47;;;;;;;23.40;8.20;;;;;;;-0.58;98.36;100953.36;109020;1264;23370;-75
2024/01/12 22:04:38;;;;;;;23.20;8.50;;;;;;;-0.57;98.39;100957.52;108813;1264;22558;-78
2024/01/12 22:07:33;;;;;;;28.90;9.50;;;;;;;-0.56;98.34;100954.30;109068;1264;23078;-75
2024/01/12 22:10:24;;;;;;;28.40;9.60;;;;;;;-0.56;98.41;100949.36;109026;1264;23046;-77
2024/01/12 22:13:15;;;;;;;32.60;12.40;;;;;;;-0.55;98.28;100953.29;109005;1264;22528;-76
2024/01/12 22:16:06;;;;;;;25.60;9.60;;;;;;;-0.55;98.27;100947.89;108948;1270;22534;-76
2024/01/12 22:18:57;;;;;;;21.50;6.90;;;;;;;-0.54;98.29;100947.52;108571;1247;22585;-77
2024/01/12 22:21:48;;;;;;;24.70;6.70;;;;;;;-0.54;98.32;100935.84;108537;1264;23250;-75
2024/01/12 22:24:39;;;;;;;25.70;8.30;;;;;;;-0.54;98.33;100929.48;107794;1271;24085;-75
2024/01/12 22:27:30;;;;;;;21.30;6.40;;;;;;;-0.54;98.31;100921.41;108358;1267;24675;-76
2024/01/12 22:30:21;;;;;;;24.80;8.80;;;;;;;-0.53;98.27;100918.44;108260;1258;22823;-75
2024/01/12 22:33:12;;;;;;;24.70;8.50;;;;;;;-0.53;98.30;100904.88;108197;1267;23841;-76
2024/01/12 22:36:03;;;;;;;21.20;6.50;;;;;;;-0.53;98.28;100899.25;108405;1270;22583;-75
2024/01/12 22:38:54;;;;;;;23.10;6.60;;;;;;;-0.53;98.34;100892.66;108042;1270;22543;-75
2024/01/12 22:41:45;;;;;;;23.40;8.20;;;;;;;-0.53;98.43;100888.73;107823;1271;22653;-75
2024/01/12 22:44:36;;;;;;;23.90;7.10;;;;;;;-0.53;98.52;100885.36;108414;1267;25617;-76
2024/01/12 22:47:27;;;;;;;26.40;7.90;;;;;;;-0.53;98.63;100880.66;107830;1264;24279;-75
2024/01/12 22:50:46;;;;;;;23.00;8.20;;;;;;;-0.53;98.63;100878.31;107786;1270;22686;-75
2024/01/12 22:53:37;;;;;;;27.30;8.60;;;;;;;-0.54;98.58;100872.99;107724;1266;22577;-75
2024/01/12 22:56:28;;;;;;;21.80;6.50;;;;;;;-0.54;98.74;100870.10;107753;1270;22542;-75
2024/01/12 22:59:20;;;;;;;26.80;7.90;;;;;;;-0.54;98.83;100870.64;107814;1259;22558;-75
2024/01/12 23:02:11;;;;;;;25.30;8.50;;;;;;;-0.55;98.89;100868.83;107691;1270;22671;-75
2024/01/12 23:05:02;;;;;;;31.30;9.10;;;;;;;-0.54;98.89;100865.31;107840;1270;24238;-75
2024/01/12 23:07:53;;;;;;;29.10;9.50;;;;;;;-0.54;98.81;100859.81;107768;1270;22677;-75
2024/01/12 23:10:44;;;;;;;26.40;8.80;;;;;;;-0.53;98.83;100862.80;107753;1265;24314;-75
2024/01/12 23:13:35;;;;;;;26.50;9.00;;;;;;;-0.53;98.79;100859.35;107927;1267;22574;-77
2024/01/12 23:16:26;;;;;;;24.50;7.40;;;;;;;-0.52;98.76;100856.22;107685;1270;22535;-75
2024/01/12 23:19:17;;;;;;;29.60;9.00;;;;;;;-0.52;98.71;100853.95;107696;1270;23281;-76
2024/01/12 23:22:08;;;;;;;20.10;5.80;;;;;;;-0.52;98.79;100852.54;107671;1270;22531;-75
2024/01/12 23:24:57;;;;;;;;;;;;;;;-0.52;98.63;100850.35;107719;1272;24357;-75
2024/01/12 23:27:49;;;;;;;23.50;6.20;;;;;;;-0.51;98.72;100853.64;107731;1272;22740;-76
2024/01/12 23:30:40;;;;;;;23.80;7.50;;;;;;;-0.51;98.85;100860.30;107560;1265;22658;-75
2024/01/12 23:33:31;;;;;;;25.00;8.00;;;;;;;-0.50;98.75;100856.78;107873;1270;22730;-75
2024/01/12 23:36:23;;;;;;;25.60;8.50;;;;;;;-0.49;98.81;100848.07;107868;1264;25501;-75
2024/01/12 23:39:14;;;;;;;24.40;7.80;;;;;;;-0.47;98.85;100846.35;107721;1270;22548;-75
2024/01/12 23:42:06;;;;;;;25.60;9.00;;;;;;;-0.46;98.69;100845.89;107652;1267;22869;-75
2024/01/12 23:44:56;;;;;;;25.70;8.50;;;;;;;-0.45;98.81;100842.20;107820;1270;25221;-76
2024/01/12 23:47:47;;;;;;;24.30;7.40;;;;;;;-0.43;98.70;100838.35;107830;1264;22531;-75
2024/01/12 23:51:02;;;;;;;23.80;7.30;;;;;;;-0.42;98.65;100833.05;107770;1270;22941;-78
2024/01/12 23:53:53;;;;;;;24.30;7.60;;;;;;;-0.41;98.75;100827.86;107826;1270;25319;-77
2024/01/12 23:56:42;;;;;;;;;;;;;;;-0.40;98.71;100823.48;107836;1270;25290;-75
2024/01/12 23:59:32;;;;;;;;;;;;;;;-0.39;98.69;100819.33;107778;1270;24278;-75
